createdAt,value
2022-11-09T00:00:47.684Z,6.04
2022-11-09T00:03:16.230Z,5.86
2022-11-09T00:05:44.605Z,5.77
2022-11-09T00:08:14.320Z,5.74
2022-11-09T00:10:42.568Z,5.64
2022-11-09T00:13:10.794Z,5.66
2022-11-09T00:15:39.009Z,5.51
2022-11-09T00:18:07.433Z,5.56
2022-11-09T00:20:35.653Z,5.33
2022-11-09T00:23:03.915Z,5.53
2022-11-09T00:25:33.622Z,5.54
2022-11-09T00:28:01.816Z,5.50
2022-11-09T00:30:31.109Z,5.48
2022-11-09T00:32:59.406Z,5.54
2022-11-09T00:35:27.963Z,5.51
2022-11-09T00:37:56.286Z,5.25
2022-11-09T00:40:24.681Z,3.50
2022-11-09T00:42:54.341Z,5.49
2022-11-09T00:45:22.604Z,5.50
2022-11-09T00:47:51.146Z,5.49
2022-11-09T00:50:19.408Z,5.43
2022-11-09T00:52:48.657Z,5.49
2022-11-09T00:55:16.979Z,5.41
2022-11-09T00:57:45.207Z,5.40
2022-11-09T01:00:18.529Z,5.34
2022-11-09T01:02:46.767Z,5.43
2022-11-09T01:05:15.046Z,4.73
2022-11-09T01:07:43.276Z,5.27
2022-11-09T01:10:11.776Z,5.40
2022-11-09T01:12:39.976Z,5.36
2022-11-09T01:15:08.961Z,5.36
2022-11-09T01:17:38.676Z,5.18
2022-11-09T01:20:08.037Z,4.97
2022-11-09T01:22:36.316Z,5.07
2022-11-09T01:25:04.761Z,5.07
2022-11-09T01:27:33.737Z,5.05
2022-11-09T01:30:02.181Z,5.03
2022-11-09T01:32:33.798Z,5.02
2022-11-09T01:35:03.495Z,5.12
2022-11-09T01:37:31.749Z,5.10
2022-11-09T01:40:00.241Z,4.98
2022-11-09T01:42:28.646Z,5.03
2022-11-09T01:45:25.360Z,4.86
2022-11-09T01:47:57.750Z,5.00
2022-11-09T01:50:34.117Z,4.95
2022-11-09T01:53:03.873Z,5.02
2022-11-09T01:55:32.572Z,5.14
2022-11-09T01:58:05.617Z,4.88
2022-11-09T02:00:35.522Z,4.81
2022-11-09T02:03:08.808Z,4.68
2022-11-09T02:05:41.833Z,4.86
2022-11-09T02:08:11.867Z,4.82
2022-11-09T02:10:46.886Z,4.69
2022-11-09T02:13:19.243Z,4.52
2022-11-09T02:15:47.803Z,4.76
2022-11-09T02:18:16.277Z,4.72
2022-11-09T02:20:51.170Z,4.83
2022-11-09T02:23:20.612Z,4.82
2022-11-09T02:25:52.806Z,4.79
2022-11-09T02:28:21.889Z,4.67
2022-11-09T02:30:53.665Z,4.74
2022-11-09T02:33:22.056Z,4.69
2022-11-09T02:35:52.149Z,4.78
2022-11-09T02:38:20.553Z,4.74
2022-11-09T02:40:51.529Z,4.70
2022-11-09T02:43:21.176Z,4.71
2022-11-09T02:45:49.620Z,4.72
2022-11-09T02:48:17.919Z,4.70
2022-11-09T02:50:46.194Z,4.56
2022-11-09T02:53:16.030Z,4.56
2022-11-09T02:55:44.454Z,4.50
2022-11-09T02:58:12.800Z,4.33
2022-11-09T03:00:41.016Z,4.56
2022-11-09T03:03:09.339Z,4.46
2022-11-09T03:05:37.918Z,4.51
2022-11-09T03:08:06.444Z,4.42
2022-11-09T03:10:36.089Z,4.05
2022-11-09T03:13:04.396Z,4.35
2022-11-09T03:15:32.710Z,4.47
2022-11-09T03:18:00.985Z,4.56
2022-11-09T03:20:29.234Z,4.43
2022-11-09T03:22:59.570Z,4.35
2022-11-09T03:25:28.434Z,4.28
2022-11-09T03:28:00.757Z,4.28
2022-11-09T03:30:29.396Z,4.25
2022-11-09T03:33:00.859Z,3.63
2022-11-09T03:35:29.640Z,4.22
2022-11-09T03:37:58.057Z,4.34
2022-11-09T03:40:26.338Z,4.28
2022-11-09T03:42:54.614Z,4.15
2022-11-09T03:45:24.674Z,3.69
2022-11-09T03:47:55.004Z,4.02
2022-11-09T03:50:23.285Z,4.17
2022-11-09T03:52:51.550Z,4.17
2022-11-09T03:55:20.022Z,3.97
2022-11-09T03:57:48.536Z,4.20
2022-11-09T04:00:20.002Z,4.18
2022-11-09T04:02:49.776Z,4.16
2022-11-09T04:05:18.700Z,4.21
2022-11-09T04:07:50.665Z,4.20
2022-11-09T04:10:19.275Z,4.27
2022-11-09T04:12:47.888Z,4.31
2022-11-09T04:15:16.446Z,4.14
2022-11-09T04:17:46.002Z,3.96
2022-11-09T04:20:15.769Z,4.00
2022-11-09T04:22:44.019Z,3.91
2022-11-09T04:25:12.361Z,3.97
2022-11-09T04:27:40.600Z,3.95
2022-11-09T04:30:10.259Z,3.93
2022-11-09T04:32:38.550Z,3.93
2022-11-09T04:35:07.930Z,3.67
2022-11-09T04:37:37.585Z,4.05
2022-11-09T04:40:06.607Z,4.08
2022-11-09T04:42:34.871Z,4.10
2022-11-09T04:45:03.162Z,3.95
2022-11-09T04:47:31.437Z,3.83
2022-11-09T04:49:59.691Z,3.71
2022-11-09T04:52:27.950Z,3.62
2022-11-09T04:54:57.591Z,3.59
2022-11-09T04:57:25.876Z,3.63
2022-11-09T04:59:54.107Z,3.72
2022-11-09T05:02:22.350Z,3.74
2022-11-09T05:04:50.645Z,3.20
2022-11-09T05:07:18.982Z,3.75
2022-11-09T05:09:47.287Z,3.34
2022-11-09T05:12:17.039Z,3.74
2022-11-09T05:14:45.276Z,3.80
2022-11-09T05:17:13.650Z,3.71
2022-11-09T05:19:41.851Z,3.86
2022-11-09T05:22:27.610Z,3.90
2022-11-09T05:24:55.905Z,3.89
2022-11-09T05:27:25.559Z,3.92
2022-11-09T05:29:53.788Z,3.97
2022-11-09T05:32:22.025Z,3.96
2022-11-09T05:34:50.301Z,4.09
2022-11-09T05:37:20.415Z,3.99
2022-11-09T05:39:48.696Z,3.77
2022-11-09T05:42:16.929Z,3.93
2022-11-09T05:44:46.645Z,3.95
2022-11-09T05:47:14.930Z,3.95
2022-11-09T05:49:43.239Z,3.95
2022-11-09T05:52:11.515Z,4.00
2022-11-09T05:54:39.766Z,3.97
2022-11-09T05:57:08.133Z,3.89
2022-11-09T05:59:36.440Z,3.88
2022-11-09T06:02:06.144Z,3.81
2022-11-09T06:04:34.488Z,3.74
2022-11-09T06:07:03.612Z,3.75
2022-11-09T06:09:31.899Z,3.92
2022-11-09T06:12:00.232Z,3.86
2022-11-09T06:14:28.617Z,3.98
2022-11-09T06:16:56.956Z,2.27
2022-11-09T06:19:26.622Z,4.00
2022-11-09T06:21:54.885Z,4.19
2022-11-09T06:24:23.105Z,3.99
2022-11-09T06:26:51.387Z,4.11
2022-11-09T06:29:19.918Z,3.95
2022-11-09T06:31:49.166Z,4.26
2022-11-09T06:34:17.414Z,3.93
2022-11-09T06:36:47.261Z,4.42
2022-11-09T06:39:15.516Z,4.47
2022-11-09T06:41:47.415Z,4.40
2022-11-09T06:44:16.486Z,3.77
2022-11-09T06:46:44.752Z,4.17
2022-11-09T06:49:13.029Z,3.49
2022-11-09T06:51:41.367Z,4.25
2022-11-09T06:54:10.976Z,4.20
2022-11-09T06:56:39.196Z,4.39
2022-11-09T06:59:07.981Z,4.24
2022-11-09T07:01:37.846Z,4.46
2022-11-09T07:04:06.568Z,4.17
2022-11-09T07:06:34.895Z,4.67
2022-11-09T07:09:03.211Z,4.86
2022-11-09T07:11:32.894Z,4.91
2022-11-09T07:14:01.532Z,5.13
2022-11-09T07:16:29.991Z,5.22
2022-11-09T07:18:58.380Z,5.43
2022-11-09T07:21:26.674Z,5.44
2022-11-09T07:23:54.966Z,5.40
2022-11-09T07:26:23.179Z,5.45
2022-11-09T07:28:52.827Z,5.58
2022-11-09T07:31:21.054Z,5.58
2022-11-09T07:33:51.573Z,5.80
2022-11-09T07:36:21.556Z,5.97
2022-11-09T07:38:50.183Z,6.22
2022-11-09T07:41:18.418Z,6.29
2022-11-09T07:43:46.777Z,6.59
2022-11-09T07:46:17.131Z,6.69
2022-11-09T07:48:45.488Z,6.62
2022-11-09T07:51:13.739Z,6.79
2022-11-09T07:53:42.109Z,6.88
2022-11-09T07:56:10.587Z,7.09
2022-11-09T07:58:38.839Z,7.18
2022-11-09T08:01:11.022Z,7.21
2022-11-09T08:03:40.681Z,7.27
2022-11-09T08:06:10.274Z,7.16
2022-11-09T08:08:40.293Z,7.30
2022-11-09T08:11:08.697Z,7.40
2022-11-09T08:13:36.944Z,7.45
2022-11-09T08:16:06.131Z,7.57
2022-11-09T08:18:34.438Z,7.68
2022-11-09T08:21:05.444Z,7.68
2022-11-09T08:23:33.726Z,7.80
2022-11-09T08:26:04.719Z,7.92
2022-11-09T08:28:33.693Z,7.94
2022-11-09T08:31:04.796Z,8.24
2022-11-09T08:33:36.878Z,8.41
2022-11-09T08:36:11.960Z,8.48
2022-11-09T08:38:40.535Z,8.44
2022-11-09T08:41:13.439Z,8.40
2022-11-09T08:43:43.875Z,8.54
2022-11-09T08:46:13.228Z,8.30
2022-11-09T08:48:41.898Z,7.94
2022-11-09T08:51:12.659Z,8.86
2022-11-09T08:53:44.724Z,8.84
2022-11-09T08:56:19.123Z,8.91
2022-11-09T08:58:48.505Z,7.86
2022-11-09T09:01:17.784Z,9.05
2022-11-09T09:03:47.032Z,8.95
2022-11-09T09:06:19.168Z,9.21
2022-11-09T09:08:47.451Z,9.34
2022-11-09T09:11:16.690Z,9.54
2022-11-09T09:13:45.239Z,9.65
2022-11-09T09:16:15.478Z,9.87
2022-11-09T09:18:44.598Z,9.90
2022-11-09T09:21:13.648Z,9.81
2022-11-09T09:23:43.718Z,10.08
2022-11-09T09:26:11.985Z,10.14
2022-11-09T09:28:40.806Z,10.15
2022-11-09T09:31:10.364Z,10.13
2022-11-09T09:33:41.816Z,10.29
2022-11-09T09:36:17.284Z,10.34
2022-11-09T09:38:47.021Z,10.15
2022-11-09T09:41:23.224Z,10.26
2022-11-09T09:43:56.171Z,10.41
2022-11-09T09:46:28.174Z,10.56
2022-11-09T09:49:01.455Z,10.69
2022-11-09T09:51:39.196Z,10.78
2022-11-09T09:54:13.911Z,10.86
2022-11-09T09:56:45.574Z,10.87
2022-11-09T09:59:20.758Z,11.05
2022-11-09T10:01:50.599Z,11.08
2022-11-09T10:04:21.390Z,11.29
2022-11-09T10:07:07.306Z,11.39
2022-11-09T10:09:54.831Z,11.50
2022-11-09T10:12:33.119Z,11.44
2022-11-09T10:15:21.104Z,10.92
2022-11-09T10:18:07.397Z,11.35
2022-11-09T10:21:09.913Z,11.32
2022-11-09T10:23:45.149Z,11.31
2022-11-09T10:26:20.365Z,11.19
2022-11-09T10:29:15.156Z,11.40
2022-11-09T10:31:45.782Z,11.47
2022-11-09T10:34:20.168Z,11.50
2022-11-09T10:36:55.599Z,11.60
2022-11-09T10:39:27.097Z,11.52
2022-11-09T10:41:56.914Z,11.60
2022-11-09T10:44:25.180Z,11.71
2022-11-09T10:47:05.425Z,11.88
2022-11-09T10:49:34.359Z,11.97
2022-11-09T10:52:02.869Z,11.65
2022-11-09T10:54:34.886Z,12.10
2022-11-09T10:57:14.387Z,12.13
2022-11-09T10:59:50.035Z,12.24
2022-11-09T11:02:42.272Z,12.30
2022-11-09T11:05:34.890Z,12.29
2022-11-09T11:08:23.335Z,12.39
2022-11-09T11:11:02.142Z,12.36
2022-11-09T11:13:36.566Z,12.64
2022-11-09T11:16:17.462Z,12.64
2022-11-09T11:18:48.434Z,12.48
2022-11-09T11:21:19.507Z,12.76
2022-11-09T11:24:12.132Z,12.92
2022-11-09T11:26:54.564Z,12.71
2022-11-09T11:29:49.135Z,12.58
2022-11-09T11:32:20.438Z,12.33
2022-11-09T11:35:05.998Z,12.33
2022-11-09T11:37:48.962Z,12.90
2022-11-09T11:40:28.024Z,12.95
2022-11-09T11:43:26.747Z,12.54
2022-11-09T11:46:08.720Z,13.30
2022-11-09T11:49:10.279Z,12.94
2022-11-09T11:51:47.851Z,13.09
2022-11-09T11:54:30.804Z,13.54
2022-11-09T11:57:14.558Z,13.21
2022-11-09T12:00:02.748Z,14.00
2022-11-09T12:03:15.504Z,14.06
2022-11-09T12:06:12.407Z,13.87
2022-11-09T12:08:53.558Z,13.97
2022-11-09T12:11:42.785Z,14.07
2022-11-09T12:14:30.765Z,14.20
2022-11-09T12:17:20.635Z,14.14
2022-11-09T12:20:16.817Z,14.22
2022-11-09T12:23:02.995Z,14.17
2022-11-09T12:25:38.786Z,13.98
2022-11-09T12:28:20.001Z,14.81
2022-11-09T12:31:05.327Z,14.54
2022-11-09T12:33:47.255Z,13.56
2022-11-09T12:36:22.168Z,14.03
2022-11-09T12:39:01.455Z,15.04
2022-11-09T12:41:39.946Z,15.36
2022-11-09T12:44:18.682Z,15.62
2022-11-09T12:46:55.555Z,15.69
2022-11-09T12:49:37.948Z,15.69
2022-11-09T12:52:13.651Z,14.59
2022-11-09T12:54:50.661Z,15.35
2022-11-09T12:57:24.831Z,16.11
2022-11-09T12:59:55.165Z,16.30
2022-11-09T13:02:32.135Z,15.06
2022-11-09T13:05:06.160Z,16.22
2022-11-09T13:07:51.865Z,16.56
2022-11-09T13:10:29.010Z,17.43
2022-11-09T13:13:06.466Z,17.01
2022-11-09T13:15:38.132Z,18.89
2022-11-09T13:18:27.410Z,19.60
2022-11-09T13:20:57.227Z,20.07
2022-11-09T13:26:47.399Z,21.16
2022-11-09T13:29:27.795Z,21.97
2022-11-09T13:32:26.977Z,22.28
2022-11-09T13:34:56.681Z,22.84
2022-11-09T13:37:49.598Z,22.87
2022-11-09T13:40:48.605Z,22.53
2022-11-09T13:43:23.787Z,21.51
2022-11-09T13:45:56.301Z,21.01
2022-11-09T13:48:34.861Z,21.36
2022-11-09T13:51:06.895Z,21.88
2022-11-09T13:53:53.046Z,22.08
2022-11-09T13:56:30.267Z,21.35
2022-11-09T13:59:04.180Z,22.01
2022-11-09T14:01:38.353Z,21.29
2022-11-09T14:04:07.058Z,19.51
2022-11-09T14:06:35.466Z,17.78
2022-11-09T14:09:04.576Z,16.99
2022-11-09T14:12:01.145Z,16.00
2022-11-09T14:15:10.568Z,15.46
2022-11-09T14:17:47.220Z,15.08
2022-11-09T14:20:29.069Z,14.35
2022-11-09T14:22:57.784Z,14.20
2022-11-09T14:25:26.561Z,13.92
2022-11-09T14:27:58.483Z,13.27
2022-11-09T14:30:28.829Z,13.02
2022-11-09T14:32:58.928Z,13.39
2022-11-09T14:35:30.567Z,13.23
2022-11-09T14:38:01.606Z,13.12
2022-11-09T14:40:32.145Z,13.08
2022-11-09T14:43:04.352Z,13.01
2022-11-09T14:45:32.837Z,12.73
2022-11-09T14:48:02.127Z,12.85
2022-11-09T14:50:33.185Z,12.56
2022-11-09T14:53:04.582Z,12.27
2022-11-09T14:55:34.836Z,12.16
2022-11-09T14:58:04.776Z,12.34
2022-11-09T15:00:35.267Z,12.06
2022-11-09T15:03:25.219Z,11.90
2022-11-09T15:06:05.600Z,11.50
2022-11-09T15:08:33.973Z,11.70
2022-11-09T15:11:02.443Z,11.16
2022-11-09T15:13:34.724Z,11.31
2022-11-09T15:16:05.359Z,11.15
2022-11-09T15:18:36.871Z,11.14
2022-11-09T15:21:13.553Z,10.78
2022-11-09T15:23:43.977Z,10.70
2022-11-09T15:26:37.756Z,10.56
2022-11-09T15:29:36.405Z,10.41
2022-11-09T15:32:14.956Z,10.19
2022-11-09T15:34:53.414Z,10.13
2022-11-09T15:37:25.302Z,10.06
2022-11-09T15:39:54.019Z,9.81
2022-11-09T15:42:22.558Z,9.89
2022-11-09T15:44:58.860Z,9.77
2022-11-09T15:47:33.345Z,9.35
2022-11-09T15:50:02.654Z,9.48
2022-11-09T15:52:31.441Z,9.35
2022-11-09T15:54:59.788Z,9.31
2022-11-09T15:57:28.037Z,9.14
2022-11-09T16:00:00.202Z,8.98
2022-11-09T16:02:28.655Z,8.88
2022-11-09T16:04:59.525Z,8.68
2022-11-09T16:07:32.197Z,8.60
2022-11-09T16:10:07.030Z,7.33
2022-11-09T16:12:36.721Z,8.22
2022-11-09T16:15:08.361Z,8.02
2022-11-09T16:17:38.001Z,7.92
2022-11-09T16:20:13.814Z,8.67
2022-11-09T16:22:42.515Z,7.15
2022-11-09T16:25:12.723Z,8.56
2022-11-09T16:27:49.976Z,8.26
2022-11-09T16:30:22.116Z,8.11
2022-11-09T16:32:53.550Z,7.74
2022-11-09T16:35:27.260Z,7.73
2022-11-09T16:38:00.585Z,7.89
2022-11-09T16:40:29.673Z,8.03
2022-11-09T16:43:00.455Z,8.08
2022-11-09T16:45:33.562Z,8.11
2022-11-09T16:48:05.541Z,8.21
2022-11-09T16:50:41.935Z,7.51
2022-11-09T16:53:16.424Z,8.08
2022-11-09T16:55:48.164Z,8.04
2022-11-09T16:58:16.746Z,8.08
2022-11-09T17:03:36.506Z,8.08
2022-11-09T17:06:05.645Z,8.03
2022-11-09T17:08:34.201Z,8.27
2022-11-09T17:11:02.527Z,8.39
2022-11-09T17:13:30.775Z,7.78
2022-11-09T17:16:06.054Z,8.44
2022-11-09T17:18:34.555Z,8.39
2022-11-09T17:21:03.366Z,8.28
2022-11-09T17:23:32.379Z,8.40
2022-11-09T17:26:04.177Z,8.44
2022-11-09T17:28:35.243Z,8.04
2022-11-09T17:31:12.049Z,8.54
2022-11-09T17:33:42.278Z,8.48
2022-11-09T17:36:13.302Z,8.37
2022-11-09T17:38:44.475Z,8.37
2022-11-09T17:41:15.685Z,8.09
2022-11-09T17:43:48.470Z,8.17
2022-11-09T17:46:24.279Z,8.19
2022-11-09T17:48:54.110Z,8.13
2022-11-09T17:51:22.936Z,8.13
2022-11-09T17:53:52.754Z,8.21
2022-11-09T17:56:22.037Z,8.29
2022-11-09T17:58:50.810Z,8.30
2022-11-09T18:01:22.750Z,7.95
2022-11-09T18:03:51.775Z,8.17
2022-11-09T18:06:23.594Z,8.11
2022-11-09T18:09:19.301Z,8.15
2022-11-09T18:11:42.898Z,8.02
2022-11-09T18:14:13.661Z,8.08
2022-11-09T18:16:45.514Z,8.03
2022-11-09T18:19:14.665Z,8.00
2022-11-09T18:21:45.940Z,7.97
2022-11-09T18:24:16.549Z,7.98
2022-11-09T18:26:49.218Z,7.72
2022-11-09T18:29:19.980Z,7.89
2022-11-09T18:31:51.623Z,7.80
2022-11-09T18:34:22.005Z,7.69
2022-11-09T18:36:51.776Z,7.68
2022-11-09T18:39:21.473Z,7.68
2022-11-09T18:41:58.715Z,7.40
2022-11-09T18:44:28.287Z,6.99
2022-11-09T18:47:04.988Z,7.61
2022-11-09T18:49:35.300Z,7.51
2022-11-09T18:52:05.563Z,7.56
2022-11-09T18:54:36.703Z,7.71
2022-11-09T18:57:06.448Z,7.70
2022-11-09T18:59:38.157Z,7.61
2022-11-09T19:02:14.168Z,7.70
2022-11-09T19:04:43.255Z,7.51
2022-11-09T19:07:12.771Z,7.51
2022-11-09T19:09:42.852Z,7.61
2022-11-09T19:12:13.575Z,7.40
2022-11-09T19:14:45.307Z,7.62
2022-11-09T19:17:18.209Z,7.43
2022-11-09T19:19:48.847Z,7.61
2022-11-09T19:22:20.145Z,7.58
2022-11-09T19:24:52.349Z,7.60
2022-11-09T19:27:25.725Z,7.63
2022-11-09T19:29:55.748Z,7.44
2022-11-09T19:32:33.693Z,7.53
2022-11-09T19:35:03.050Z,7.36
2022-11-09T19:37:32.065Z,7.57
2022-11-09T19:40:03.821Z,7.32
2022-11-09T19:42:33.511Z,7.41
2022-11-09T19:45:03.454Z,7.10
2022-11-09T19:47:34.507Z,7.20
2022-11-09T19:50:04.505Z,7.02
2022-11-09T19:52:34.445Z,7.03
2022-11-09T19:55:03.916Z,7.13
2022-11-09T19:57:35.819Z,7.13
2022-11-09T20:00:06.661Z,7.11
2022-11-09T20:02:37.796Z,7.13
2022-11-09T20:05:07.961Z,7.16
2022-11-09T20:07:39.975Z,7.07
2022-11-09T20:10:12.333Z,7.04
2022-11-09T20:12:57.359Z,6.94
2022-11-09T20:15:27.140Z,7.04
2022-11-09T20:17:58.347Z,6.86
2022-11-09T20:20:28.777Z,7.08
2022-11-09T20:22:59.590Z,7.18
2022-11-09T20:25:29.068Z,7.17
2022-11-09T20:27:58.605Z,7.24
2022-11-09T20:30:29.487Z,7.05
2022-11-09T20:33:02.347Z,7.09
2022-11-09T20:35:45.698Z,7.01
2022-11-09T20:38:16.091Z,6.96
2022-11-09T20:40:45.687Z,7.11
2022-11-09T20:43:15.450Z,7.16
2022-11-09T20:45:45.304Z,7.13
2022-11-09T20:48:46.536Z,7.13
2022-11-09T20:51:09.161Z,6.92
2022-11-09T20:53:39.466Z,6.76
2022-11-09T20:56:08.810Z,7.12
2022-11-09T20:58:38.454Z,6.75
2022-11-09T21:01:09.990Z,7.08
2022-11-09T21:03:40.653Z,6.96
2022-11-09T21:06:10.795Z,6.81
2022-11-09T21:08:40.455Z,6.70
2022-11-09T21:11:13.142Z,6.63
2022-11-09T21:13:44.504Z,6.59
2022-11-09T21:16:15.445Z,6.45
2022-11-09T21:18:45.400Z,6.62
2022-11-09T21:21:15.725Z,6.39
2022-11-09T21:24:01.907Z,6.38
2022-11-09T21:26:54.135Z,6.58
2022-11-09T21:29:42.825Z,6.60
2022-11-09T21:32:12.630Z,6.35
2022-11-09T21:34:42.359Z,6.03
2022-11-09T21:37:11.269Z,6.54
2022-11-09T21:39:39.624Z,6.52
2022-11-09T21:42:08.840Z,6.66
2022-11-09T21:44:37.367Z,6.71
2022-11-09T21:47:06.327Z,6.73
2022-11-09T21:49:34.985Z,6.83
2022-11-09T21:52:04.780Z,6.84
2022-11-09T21:54:33.099Z,6.88
2022-11-09T21:57:01.475Z,6.78
2022-11-09T21:59:29.776Z,6.68
2022-11-09T22:01:58.139Z,6.58
2022-11-09T22:04:26.445Z,6.46
2022-11-09T22:06:54.777Z,6.43
2022-11-09T22:09:24.552Z,6.35
2022-11-09T22:12:10.159Z,5.70
2022-11-09T22:14:55.877Z,6.14
2022-11-09T22:17:24.107Z,6.22
2022-11-09T22:20:09.965Z,6.29
2022-11-09T22:22:38.148Z,6.25
2022-11-09T22:25:09.159Z,6.00
2022-11-09T22:27:37.464Z,6.20
2022-11-09T22:30:06.711Z,6.19
2022-11-09T22:32:35.188Z,6.34
2022-11-09T22:35:03.470Z,6.18
2022-11-09T22:37:33.531Z,6.21
2022-11-09T22:40:02.829Z,6.35
2022-11-09T22:42:32.584Z,6.36
2022-11-09T22:45:00.896Z,6.36
2022-11-09T22:47:29.347Z,6.44
2022-11-09T22:52:22.925Z,6.17
2022-11-09T22:54:51.155Z,6.47
2022-11-09T22:57:19.266Z,6.39
2022-11-09T22:59:48.795Z,6.44
2022-11-09T23:02:16.945Z,6.49
2022-11-09T23:04:45.123Z,6.42
2022-11-09T23:07:13.446Z,6.47
2022-11-09T23:09:41.918Z,6.53
2022-11-09T23:12:10.003Z,6.58
2022-11-09T23:14:55.617Z,6.63
2022-11-09T23:17:48.165Z,6.38
2022-11-09T23:20:16.858Z,6.56
2022-11-09T23:22:45.038Z,6.58
2022-11-09T23:25:31.710Z,6.53
2022-11-09T23:28:00.075Z,6.33
2022-11-09T23:30:28.278Z,6.45
2022-11-09T23:32:57.876Z,6.36
2022-11-09T23:35:26.018Z,6.31
2022-11-09T23:37:59.142Z,6.19
2022-11-09T23:40:27.491Z,6.24
2022-11-09T23:43:01.215Z,6.20
2022-11-09T23:45:29.403Z,6.03
2022-11-09T23:47:58.886Z,5.95
2022-11-09T23:50:27.064Z,5.97
2022-11-09T23:52:58.225Z,5.93
2022-11-09T23:55:26.799Z,5.86
2022-11-09T23:57:55.187Z,6.00
